sensor_id;sensor_type;location;lat;lon;timestamp;P1;durP1;ratioP1;P2;durP2;ratioP2
32427;SDS011;18882;50.952;4.366;2023-10-31T00:01:41;33.00;;;14.68;;
32427;SDS011;18882;50.952;4.366;2023-10-31T00:05:13;43.58;;;15.50;;
32427;SDS011;18882;50.952;4.366;2023-10-31T00:12:12;40.17;;;14.63;;
32427;SDS011;18882;50.952;4.366;2023-10-31T00:15:37;36.35;;;14.18;;
32427;SDS011;18882;50.952;4.366;2023-10-31T00:18:56;39.42;;;16.30;;
32427;SDS011;18882;50.952;4.366;2023-10-31T00:22:20;35.60;;;13.57;;
32427;SDS011;18882;50.952;4.366;2023-10-31T00:25:37;35.78;;;14.55;;
32427;SDS011;18882;50.952;4.366;2023-10-31T00:29:03;41.20;;;14.00;;
32427;SDS011;18882;50.952;4.366;2023-10-31T00:32:18;32.80;;;13.70;;
32427;SDS011;18882;50.952;4.366;2023-10-31T00:35:29;31.48;;;13.05;;
32427;SDS011;18882;50.952;4.366;2023-10-31T00:42:21;25.27;;;11.50;;
32427;SDS011;18882;50.952;4.366;2023-10-31T00:45:59;28.90;;;12.38;;
32427;SDS011;18882;50.952;4.366;2023-10-31T00:52:50;20.92;;;8.80;;
32427;SDS011;18882;50.952;4.366;2023-10-31T00:56:11;23.10;;;10.05;;
32427;SDS011;18882;50.952;4.366;2023-10-31T00:59:41;23.50;;;9.73;;
32427;SDS011;18882;50.952;4.366;2023-10-31T01:02:58;21.67;;;8.80;;
32427;SDS011;18882;50.952;4.366;2023-10-31T01:09:30;15.88;;;6.93;;
32427;SDS011;18882;50.952;4.366;2023-10-31T01:19:51;15.50;;;7.13;;
32427;SDS011;18882;50.952;4.366;2023-10-31T01:23:00;15.95;;;6.57;;
32427;SDS011;18882;50.952;4.366;2023-10-31T01:26:05;19.25;;;6.45;;
32427;SDS011;18882;50.952;4.366;2023-10-31T01:29:11;20.95;;;7.85;;
32427;SDS011;18882;50.952;4.366;2023-10-31T01:32:59;18.35;;;6.65;;
32427;SDS011;18882;50.952;4.366;2023-10-31T01:39:51;13.45;;;6.55;;
32427;SDS011;18882;50.952;4.366;2023-10-31T01:47:21;15.38;;;6.90;;
32427;SDS011;18882;50.952;4.366;2023-10-31T01:50:52;14.60;;;7.43;;
32427;SDS011;18882;50.952;4.366;2023-10-31T01:53:58;15.40;;;7.25;;
32427;SDS011;18882;50.952;4.366;2023-10-31T01:57:00;16.73;;;7.97;;
32427;SDS011;18882;50.952;4.366;2023-10-31T02:04:29;13.25;;;7.25;;
32427;SDS011;18882;50.952;4.366;2023-10-31T02:08:15;21.75;;;8.98;;
32427;SDS011;18882;50.952;4.366;2023-10-31T02:15:14;16.15;;;8.32;;
32427;SDS011;18882;50.952;4.366;2023-10-31T02:18:55;14.35;;;8.18;;
32427;SDS011;18882;50.952;4.366;2023-10-31T02:23:02;18.77;;;7.50;;
32427;SDS011;18882;50.952;4.366;2023-10-31T02:33:34;15.80;;;8.07;;
32427;SDS011;18882;50.952;4.366;2023-10-31T02:40:13;16.48;;;7.22;;
32427;SDS011;18882;50.952;4.366;2023-10-31T02:43:29;16.95;;;7.82;;
32427;SDS011;18882;50.952;4.366;2023-10-31T02:46:46;17.73;;;8.00;;
32427;SDS011;18882;50.952;4.366;2023-10-31T02:50:06;16.00;;;8.68;;
32427;SDS011;18882;50.952;4.366;2023-10-31T02:53:22;20.70;;;8.50;;
32427;SDS011;18882;50.952;4.366;2023-10-31T03:00:00;21.73;;;9.40;;
32427;SDS011;18882;50.952;4.366;2023-10-31T03:03:12;21.60;;;9.20;;
32427;SDS011;18882;50.952;4.366;2023-10-31T03:07:08;19.15;;;8.60;;
32427;SDS011;18882;50.952;4.366;2023-10-31T03:10:38;22.20;;;9.18;;
32427;SDS011;18882;50.952;4.366;2023-10-31T03:14:14;19.90;;;7.78;;
32427;SDS011;18882;50.952;4.366;2023-10-31T07:26:09;24.55;;;10.48;;
32427;SDS011;18882;50.952;4.366;2023-10-31T07:29:20;23.05;;;10.00;;
32427;SDS011;18882;50.952;4.366;2023-10-31T07:36:23;23.45;;;9.60;;
32427;SDS011;18882;50.952;4.366;2023-10-31T07:40:07;20.70;;;9.60;;
32427;SDS011;18882;50.952;4.366;2023-10-31T07:43:30;22.05;;;9.98;;
32427;SDS011;18882;50.952;4.366;2023-10-31T07:46:49;22.17;;;8.90;;
32427;SDS011;18882;50.952;4.366;2023-10-31T07:53:12;18.10;;;8.97;;
32427;SDS011;18882;50.952;4.366;2023-10-31T07:56:43;17.50;;;9.05;;
32427;SDS011;18882;50.952;4.366;2023-10-31T07:59:59;19.60;;;9.50;;
32427;SDS011;18882;50.952;4.366;2023-10-31T08:03:17;22.27;;;9.77;;
32427;SDS011;18882;50.952;4.366;2023-10-31T08:06:51;22.23;;;9.75;;
32427;SDS011;18882;50.952;4.366;2023-10-31T08:10:14;20.88;;;9.35;;
32427;SDS011;18882;50.952;4.366;2023-10-31T08:32:35;12.40;;;6.67;;
32427;SDS011;18882;50.952;4.366;2023-10-31T08:35:26;10.93;;;6.00;;
32427;SDS011;18882;50.952;4.366;2023-10-31T08:38:33;7.85;;;5.03;;
32427;SDS011;18882;50.952;4.366;2023-10-31T08:41:57;11.10;;;6.72;;
32427;SDS011;18882;50.952;4.366;2023-10-31T08:49:04;14.13;;;5.93;;
32427;SDS011;18882;50.952;4.366;2023-10-31T08:52:15;10.43;;;5.78;;
32427;SDS011;18882;50.952;4.366;2023-10-31T08:56:02;12.80;;;5.05;;
32427;SDS011;18882;50.952;4.366;2023-10-31T08:59:50;7.72;;;5.22;;
32427;SDS011;18882;50.952;4.366;2023-10-31T09:03:24;12.53;;;5.37;;
32427;SDS011;18882;50.952;4.366;2023-10-31T09:10:12;14.40;;;5.25;;
32427;SDS011;18882;50.952;4.366;2023-10-31T09:13:36;8.40;;;4.80;;
32427;SDS011;18882;50.952;4.366;2023-10-31T09:17:04;14.18;;;4.72;;
32427;SDS011;18882;50.952;4.366;2023-10-31T09:20:50;8.32;;;4.97;;
32427;SDS011;18882;50.952;4.366;2023-10-31T09:23:58;13.02;;;4.65;;
32427;SDS011;18882;50.952;4.366;2023-10-31T09:34:41;9.32;;;3.85;;
32427;SDS011;18882;50.952;4.366;2023-10-31T09:41:20;13.27;;;3.78;;
32427;SDS011;18882;50.952;4.366;2023-10-31T09:44:51;9.00;;;3.58;;
32427;SDS011;18882;50.952;4.366;2023-10-31T09:52:17;6.90;;;3.05;;
32427;SDS011;18882;50.952;4.366;2023-10-31T09:56:01;8.48;;;2.42;;
32427;SDS011;18882;50.952;4.366;2023-10-31T09:59:49;7.65;;;2.50;;
32427;SDS011;18882;50.952;4.366;2023-10-31T10:03:04;4.45;;;3.03;;
32427;SDS011;18882;50.952;4.366;2023-10-31T10:06:49;8.15;;;3.00;;
32427;SDS011;18882;50.952;4.366;2023-10-31T10:13:12;8.25;;;3.60;;
32427;SDS011;18882;50.952;4.366;2023-10-31T10:20:16;8.20;;;3.83;;
32427;SDS011;18882;50.952;4.366;2023-10-31T10:23:52;9.52;;;3.65;;
32427;SDS011;18882;50.952;4.366;2023-10-31T10:27:22;9.10;;;3.90;;
32427;SDS011;18882;50.952;4.366;2023-10-31T10:30:44;8.52;;;4.00;;
32427;SDS011;18882;50.952;4.366;2023-10-31T10:41:09;9.15;;;3.47;;
32427;SDS011;18882;50.952;4.366;2023-10-31T10:44:05;9.30;;;3.47;;
32427;SDS011;18882;50.952;4.366;2023-10-31T13:31:02;7.72;;;4.53;;
32427;SDS011;18882;50.952;4.366;2023-10-31T13:37:31;6.82;;;3.88;;
32427;SDS011;18882;50.952;4.366;2023-10-31T13:41:00;9.25;;;3.90;;
32427;SDS011;18882;50.952;4.366;2023-10-31T13:47:04;7.10;;;3.00;;
32427;SDS011;18882;50.952;4.366;2023-10-31T19:05:51;8.45;;;3.22;;
32427;SDS011;18882;50.952;4.366;2023-10-31T19:16:11;6.72;;;2.42;;
32427;SDS011;18882;50.952;4.366;2023-10-31T19:19:36;10.65;;;2.17;;
32427;SDS011;18882;50.952;4.366;2023-10-31T19:22:44;6.60;;;2.53;;
32427;SDS011;18882;50.952;4.366;2023-10-31T19:29:26;7.28;;;2.33;;
32427;SDS011;18882;50.952;4.366;2023-10-31T19:35:43;9.77;;;2.55;;
32427;SDS011;18882;50.952;4.366;2023-10-31T19:39:09;8.60;;;1.92;;
32427;SDS011;18882;50.952;4.366;2023-10-31T19:41:55;8.23;;;2.25;;
32427;SDS011;18882;50.952;4.366;2023-10-31T19:45:32;7.65;;;2.28;;
32427;SDS011;18882;50.952;4.366;2023-10-31T19:48:56;4.50;;;2.00;;
32427;SDS011;18882;50.952;4.366;2023-10-31T19:52:18;10.93;;;2.85;;
32427;SDS011;18882;50.952;4.366;2023-10-31T19:55:43;14.27;;;3.17;;
32427;SDS011;18882;50.952;4.366;2023-10-31T19:59:30;10.88;;;2.95;;
32427;SDS011;18882;50.952;4.366;2023-10-31T20:02:45;10.23;;;3.10;;
32427;SDS011;18882;50.952;4.366;2023-10-31T20:09:45;15.13;;;3.45;;
32427;SDS011;18882;50.952;4.366;2023-10-31T20:19:33;15.55;;;4.05;;
32427;SDS011;18882;50.952;4.366;2023-10-31T20:22:45;9.30;;;3.00;;
32427;SDS011;18882;50.952;4.366;2023-10-31T20:26:17;10.32;;;3.17;;
32427;SDS011;18882;50.952;4.366;2023-10-31T20:29:29;7.18;;;2.95;;
32427;SDS011;18882;50.952;4.366;2023-10-31T20:36:09;5.70;;;2.22;;
32427;SDS011;18882;50.952;4.366;2023-10-31T20:39:39;15.18;;;3.10;;
32427;SDS011;18882;50.952;4.366;2023-10-31T20:43:04;9.60;;;3.17;;
32427;SDS011;18882;50.952;4.366;2023-10-31T20:50:14;11.00;;;3.10;;
32427;SDS011;18882;50.952;4.366;2023-10-31T20:53:37;7.50;;;2.97;;
32427;SDS011;18882;50.952;4.366;2023-10-31T20:56:57;8.23;;;2.95;;
32427;SDS011;18882;50.952;4.366;2023-10-31T21:00:20;8.85;;;2.53;;
32427;SDS011;18882;50.952;4.366;2023-10-31T21:03:41;13.80;;;3.00;;
32427;SDS011;18882;50.952;4.366;2023-10-31T21:10:34;11.57;;;2.63;;
32427;SDS011;18882;50.952;4.366;2023-10-31T21:13:49;9.50;;;2.45;;
32427;SDS011;18882;50.952;4.366;2023-10-31T21:16:56;4.45;;;2.47;;
32427;SDS011;18882;50.952;4.366;2023-10-31T21:19:53;9.43;;;3.08;;
32427;SDS011;18882;50.952;4.366;2023-10-31T21:23:19;4.32;;;2.40;;
32427;SDS011;18882;50.952;4.366;2023-10-31T21:26:42;5.93;;;2.40;;
32427;SDS011;18882;50.952;4.366;2023-10-31T21:32:48;7.22;;;2.50;;
32427;SDS011;18882;50.952;4.366;2023-10-31T21:36:19;8.63;;;2.95;;
32427;SDS011;18882;50.952;4.366;2023-10-31T21:39:59;10.80;;;3.88;;
32427;SDS011;18882;50.952;4.366;2023-10-31T21:43:06;12.85;;;2.92;;
32427;SDS011;18882;50.952;4.366;2023-10-31T21:49:44;7.68;;;2.35;;
32427;SDS011;18882;50.952;4.366;2023-10-31T21:53:14;10.35;;;2.60;;
32427;SDS011;18882;50.952;4.366;2023-10-31T21:56:26;7.05;;;2.63;;
32427;SDS011;18882;50.952;4.366;2023-10-31T21:59:31;7.63;;;3.33;;
32427;SDS011;18882;50.952;4.366;2023-10-31T22:06:15;7.95;;;3.10;;
32427;SDS011;18882;50.952;4.366;2023-10-31T22:09:20;11.50;;;3.05;;
32427;SDS011;18882;50.952;4.366;2023-10-31T22:12:32;6.13;;;2.35;;
32427;SDS011;18882;50.952;4.366;2023-10-31T22:15:50;8.52;;;2.28;;
